Time;durP1;ratioP1;P1;durP2;ratioP2;P2;SDS_P1;SDS_P2;PMS_P1;PMS_P2;Temp;Humidity;BMP_temperature;BMP_pressure;BME280_temperature;BME280_humidity;BME280_pressure;Samples;Min_cycle;Max_cycle;Signal;HPM_P1;HPM_P2
2023/05/04 00:00:46;;;;;;;0.80;0.65;;;;;;;;;;5056729;28;20060;-73
2023/05/04 00:03:19;;;;;;;3.72;0.70;;;;;;;;;;5035495;28;20065;-74
2023/05/04 00:05:51;;;;;;;3.10;0.73;;;;;;;;;;5058518;28;20040;-73
2023/05/04 00:08:30;;;;;;;3.67;2.08;;;;;;;;;;5055640;28;20045;-74
2023/05/04 00:11:10;;;;;;;2.42;1.50;;;;;;;;;;5054209;28;20041;-73
2023/05/04 00:13:42;;;;;;;4.10;1.15;;;;;;;;;;5056327;28;20399;-74
2023/05/04 00:16:30;;;;;;;2.53;1.90;;;;;;;;;;5056464;28;20515;-72
2023/05/04 00:19:07;;;;;;;1.48;0.93;;;;;;;;;;5056887;28;20044;-74
2023/05/04 00:21:41;;;;;;;1.67;1.00;;;;;;;;;;5054047;28;20523;-75
2023/05/04 00:24:17;;;;;;;1.95;0.90;;;;;;;;;;5052731;28;20068;-74
2023/05/04 00:26:52;;;;;;;5.25;1.70;;;;;;;;;;5058564;28;20035;-74
2023/05/04 00:29:27;;;;;;;2.33;1.05;;;;;;;;;;5061798;28;20412;-75
2023/05/04 00:31:58;;;;;;;32.08;1.58;;;;;;;;;;5058199;28;20041;-74
2023/05/04 00:34:35;;;;;;;6.47;1.10;;;;;;;;;;5067725;28;20055;-75
2023/05/04 00:37:06;;;;;;;4.75;1.27;;;;;;;;;;5067252;28;20053;-73
2023/05/04 00:39:49;;;;;;;6.47;1.10;;;;;;;;;;5065018;28;20705;-73
2023/05/04 00:42:23;;;;;;;4.28;1.02;;;;;;;;;;5061266;28;20052;-73
2023/05/04 00:44:56;;;;;;;1.75;1.20;;;;;;;;;;5067424;28;20044;-73
2023/05/04 00:47:30;;;;;;;1.42;1.20;;;;;;;;;;5067374;28;20056;-73
2023/05/04 00:50:04;;;;;;;4.82;1.10;;;;;;;;;;5049210;28;20060;-74
2023/05/04 00:52:37;;;;;;;7.03;1.23;;;;;;;;;;5047033;28;20045;-72
2023/05/04 00:55:13;;;;;;;3.92;1.35;;;;;;;;;;5045418;28;20053;-73
2023/05/04 00:57:45;;;;;;;2.20;0.90;;;;;;;;;;5052223;28;20040;-73
2023/05/04 01:00:16;;;;;;;6.25;0.80;;;;;;;;;;5034811;28;20058;-73
2023/05/04 01:02:49;;;;;;;9.52;1.20;;;;;;;;;;5054828;28;20044;-73
2023/05/04 01:05:26;;;;;;;4.22;1.25;;;;;;;;;;5062387;28;20049;-75
2023/05/04 01:08:14;;;;;;;6.35;2.17;;;;;;;;;;5065706;28;20048;-74
2023/05/04 01:10:55;;;;;;;6.03;1.92;;;;;;;;;;5064460;28;20052;-73
2023/05/04 01:13:28;;;;;;;5.03;1.92;;;;;;;;;;5066679;28;20056;-73
2023/05/04 01:16:07;;;;;;;6.05;1.77;;;;;;;;;;5065061;28;20056;-73
2023/05/04 01:18:38;;;;;;;5.97;1.70;;;;;;;;;;5058426;28;20632;-73
2023/05/04 01:21:09;;;;;;;11.48;2.72;;;;;;;;;;5066762;28;20047;-73
2023/05/04 01:23:40;;;;;;;4.82;1.65;;;;;;;;;;5066143;28;20044;-73
2023/05/04 01:26:25;;;;;;;6.07;1.58;;;;;;;;;;5053081;28;20053;-73
2023/05/04 01:29:20;;;;;;;5.47;1.25;;;;;;;;;;5053134;28;20040;-72
2023/05/04 01:31:53;;;;;;;4.82;1.20;;;;;;;;;;5053810;28;20049;-73
2023/05/04 01:34:24;;;;;;;7.00;1.65;;;;;;;;;;5043712;28;20652;-73
2023/05/04 01:36:56;;;;;;;3.75;1.27;;;;;;;;;;5053818;28;20045;-72
2023/05/04 01:39:28;;;;;;;4.45;1.17;;;;;;;;;;5054457;28;20593;-72
2023/05/04 01:42:02;;;;;;;7.90;1.40;;;;;;;;;;5053576;28;20407;-73
2023/05/04 01:44:34;;;;;;;7.50;1.30;;;;;;;;;;5045776;28;20041;-73
2023/05/04 01:47:05;;;;;;;10.25;1.00;;;;;;;;;;5045574;28;20048;-73
2023/05/04 01:49:37;;;;;;;6.38;1.02;;;;;;;;;;5044216;28;20527;-73
2023/05/04 01:52:09;;;;;;;7.13;1.02;;;;;;;;;;5044235;28;20164;-74
2023/05/04 01:54:41;;;;;;;10.55;1.20;;;;;;;;;;5043933;28;20060;-73
2023/05/04 01:57:12;;;;;;;4.60;0.73;;;;;;;;;;5046119;28;20071;-74
2023/05/04 01:59:42;;;;;;;5.05;1.00;;;;;;;;;;5044331;28;20048;-72
2023/05/04 02:02:13;;;;;;;4.25;0.93;;;;;;;;;;5046039;28;20060;-73
2023/05/04 02:04:45;;;;;;;5.60;1.58;;;;;;;;;;5044116;28;20625;-73
2023/05/04 02:07:16;;;;;;;4.22;1.25;;;;;;;;;;5046156;28;20060;-72
2023/05/04 02:09:46;;;;;;;5.05;1.20;;;;;;;;;;5044427;28;20045;-74
2023/05/04 02:12:17;;;;;;;7.55;1.20;;;;;;;;;;5045803;28;20056;-73
2023/05/04 02:14:47;;;;;;;5.97;0.90;;;;;;;;;;5045627;28;20048;-73
2023/05/04 02:17:18;;;;;;;3.92;1.05;;;;;;;;;;5043701;28;20064;-73
2023/05/04 02:19:48;;;;;;;3.85;0.95;;;;;;;;;;5044549;28;20051;-72
2023/05/04 02:22:20;;;;;;;4.03;0.93;;;;;;;;;;5044055;28;20063;-72
2023/05/04 02:24:53;;;;;;;8.70;1.20;;;;;;;;;;5044636;28;20057;-73
2023/05/04 02:27:25;;;;;;;7.13;1.10;;;;;;;;;;5045687;28;20056;-74
2023/05/04 02:29:57;;;;;;;9.80;1.40;;;;;;;;;;5043249;28;20052;-73
2023/05/04 02:32:28;;;;;;;16.05;1.30;;;;;;;;;;5045592;28;20071;-73
2023/05/04 02:34:58;;;;;;;1.40;0.73;;;;;;;;;;5043039;28;20598;-73
2023/05/04 02:37:29;;;;;;;7.07;0.90;;;;;;;;;;5044888;28;20061;-73
2023/05/04 02:39:59;;;;;;;4.65;1.00;;;;;;;;;;5045560;28;20500;-74
2023/05/04 02:42:29;;;;;;;4.35;1.00;;;;;;;;;;5043675;28;20053;-73
2023/05/04 02:45:00;;;;;;;6.35;0.98;;;;;;;;;;5045196;28;20064;-73
2023/05/04 02:47:30;;;;;;;4.55;0.80;;;;;;;;;;5045036;28;20052;-73
2023/05/04 02:50:01;;;;;;;2.60;0.70;;;;;;;;;;5044414;28;20420;-73
2023/05/04 02:52:34;;;;;;;3.97;1.23;;;;;;;;;;5044740;28;20051;-71
2023/05/04 02:55:05;;;;;;;4.88;1.10;;;;;;;;;;5044167;28;20045;-73
2023/05/04 02:57:36;;;;;;;4.55;0.85;;;;;;;;;;5044868;28;20053;-72
2023/05/04 03:00:06;;;;;;;3.83;1.00;;;;;;;;;;5043684;28;20075;-73
2023/05/04 03:02:37;;;;;;;6.57;0.90;;;;;;;;;;5043671;28;20064;-73
2023/05/04 03:05:08;;;;;;;6.15;0.85;;;;;;;;;;5044717;28;20423;-72
2023/05/04 03:07:40;;;;;;;9.13;1.20;;;;;;;;;;5042993;28;20056;-74
2023/05/04 03:10:10;;;;;;;4.82;0.93;;;;;;;;;;5043147;28;20052;-73
2023/05/04 03:12:40;;;;;;;8.25;1.10;;;;;;;;;;5043490;28;20060;-73
2023/05/04 03:15:11;;;;;;;3.22;0.80;;;;;;;;;;5045294;28;20052;-73
2023/05/04 03:17:42;;;;;;;7.32;1.00;;;;;;;;;;5042968;28;20055;-73
2023/05/04 03:20:13;;;;;;;3.10;0.93;;;;;;;;;;5042904;28;20056;-73
2023/05/04 03:22:43;;;;;;;2.22;1.00;;;;;;;;;;5043150;28;20057;-73
2023/05/04 03:25:22;;;;;;;2.67;0.80;;;;;;;;;;5042815;28;20061;-73
2023/05/04 03:27:52;;;;;;;4.32;0.88;;;;;;;;;;5043820;28;20052;-74
2023/05/04 03:30:23;;;;;;;8.57;1.02;;;;;;;;;;5045483;28;20037;-74
2023/05/04 03:32:54;;;;;;;12.65;1.40;;;;;;;;;;5043248;28;20060;-72
2023/05/04 03:35:24;;;;;;;1.73;0.98;;;;;;;;;;5042871;28;20053;-74
2023/05/04 03:37:57;;;;;;;6.03;1.55;;;;;;;;;;5042723;28;20420;-74
2023/05/04 03:40:27;;;;;;;7.85;1.55;;;;;;;;;;5043390;28;20049;-73
2023/05/04 03:42:57;;;;;;;4.85;1.30;;;;;;;;;;5042651;28;20057;-72
2023/05/04 03:45:28;;;;;;;7.10;1.10;;;;;;;;;;5042558;28;20419;-74
2023/05/04 03:47:59;;;;;;;9.82;1.48;;;;;;;;;;5043034;28;20507;-73
2023/05/04 03:50:30;;;;;;;5.10;1.25;;;;;;;;;;5043081;28;20049;-74
2023/05/04 03:53:00;;;;;;;4.60;1.30;;;;;;;;;;5044511;28;20060;-74
2023/05/04 03:55:33;;;;;;;5.70;1.20;;;;;;;;;;5042031;28;20057;-73
2023/05/04 03:58:03;;;;;;;7.30;1.60;;;;;;;;;;5044157;28;20060;-74
2023/05/04 04:00:34;;;;;;;6.43;1.70;;;;;;;;;;5044613;28;20056;-73
2023/05/04 04:03:11;;;;;;;10.98;2.30;;;;;;;;;;5042727;28;20053;-73
2023/05/04 04:05:42;;;;;;;3.63;1.70;;;;;;;;;;5046000;28;20049;-73
2023/05/04 04:08:13;;;;;;;6.55;2.05;;;;;;;;;;5046786;28;20144;-73
2023/05/04 04:10:44;;;;;;;8.23;2.10;;;;;;;;;;5047720;28;20048;-73
2023/05/04 04:13:16;;;;;;;6.28;1.73;;;;;;;;;;5046091;28;20049;-73
2023/05/04 04:15:46;;;;;;;6.30;1.83;;;;;;;;;;5047262;28;20045;-74
2023/05/04 04:18:16;;;;;;;15.30;2.22;;;;;;;;;;5048033;28;20419;-72
2023/05/04 04:20:46;;;;;;;7.20;1.90;;;;;;;;;;5047908;28;20037;-73
2023/05/04 04:23:20;;;;;;;6.85;1.77;;;;;;;;;;5047777;28;20052;-72
2023/05/04 04:25:52;;;;;;;;;;;;;;;;;;5048364;28;20049;-74
2023/05/04 04:28:22;;;;;;;10.15;2.60;;;;;;;;;;5045783;28;19939;-73
2023/05/04 04:30:52;;;;;;;11.60;2.53;;;;;;;;;;5047632;28;20049;-73
2023/05/04 04:33:23;;;;;;;10.10;2.72;;;;;;;;;;5046322;28;20049;-73
2023/05/04 04:35:54;;;;;;;8.00;2.80;;;;;;;;;;5047466;28;20796;-73
2023/05/04 04:38:23;;;;;;;4.43;2.30;;;;;;;;;;5047520;28;20041;-73
2023/05/04 04:40:54;;;;;;;4.35;2.40;;;;;;;;;;5047704;28;20056;-73
2023/05/04 04:43:23;;;;;;;5.20;2.60;;;;;;;;;;5045569;28;20052;-72
2023/05/04 04:45:54;;;;;;;9.80;3.28;;;;;;;;;;5046742;28;20053;-73
2023/05/04 04:48:25;;;;;;;9.00;3.13;;;;;;;;;;5045523;28;20048;-73
2023/05/04 04:50:55;;;;;;;9.10;3.70;;;;;;;;;;5047276;28;20049;-73
2023/05/04 04:53:25;;;;;;;5.93;3.80;;;;;;;;;;5047353;28;20045;-73
2023/05/04 04:55:54;;;;;;;18.75;5.18;;;;;;;;;;5047187;28;20049;-74
2023/05/04 04:58:25;;;;;;;14.57;5.32;;;;;;;;;;5047636;28;20041;-73
2023/05/04 05:00:57;;;;;;;17.00;5.75;;;;;;;;;;5047040;28;20049;-73
2023/05/04 05:03:31;;;;;;;10.60;5.40;;;;;;;;;;5046933;28;20052;-73
2023/05/04 05:06:02;;;;;;;18.17;6.22;;;;;;;;;;5046674;28;20049;-73
2023/05/04 05:08:34;;;;;;;27.80;6.88;;;;;;;;;;5047226;28;20476;-74
2023/05/04 05:11:04;;;;;;;47.80;6.82;;;;;;;;;;5046567;28;20056;-73
2023/05/04 05:13:35;;;;;;;24.38;7.22;;;;;;;;;;5047016;28;20045;-73
2023/05/04 05:16:05;;;;;;;21.65;7.35;;;;;;;;;;5045334;28;20056;-74
2023/05/04 05:18:35;;;;;;;21.05;7.47;;;;;;;;;;5046003;28;20541;-73
2023/05/04 05:21:06;;;;;;;17.30;6.47;;;;;;;;;;5045840;28;20057;-74
2023/05/04 05:23:37;;;;;;;14.32;6.90;;;;;;;;;;5046295;28;20499;-73
2023/05/04 05:26:13;;;;;;;15.02;6.95;;;;;;;;;;5046586;28;20045;-74
2023/05/04 05:28:43;;;;;;;16.60;7.32;;;;;;;;;;5046595;28;20052;-74
2023/05/04 05:31:14;;;;;;;21.10;6.65;;;;;;;;;;5046376;28;20048;-73
2023/05/04 05:33:44;;;;;;;22.80;6.93;;;;;;;;;;5046564;28;20051;-73
2023/05/04 05:36:15;;;;;;;24.65;6.85;;;;;;;;;;5046063;28;20056;-75
2023/05/04 05:38:45;;;;;;;26.40;7.00;;;;;;;;;;5046407;28;20512;-74
2023/05/04 05:41:18;;;;;;;38.10;7.13;;;;;;;;;;5045967;28;20045;-74
2023/05/04 05:43:48;;;;;;;42.90;7.93;;;;;;;;;;5046511;28;20045;-73
2023/05/04 05:46:19;;;;;;;59.40;8.85;;;;;;;;;;5046662;28;20053;-74
2023/05/04 05:48:49;;;;;;;52.83;11.10;;;;;;;;;;5046033;28;20055;-73
2023/05/04 05:51:19;;;;;;;69.00;8.68;;;;;;;;;;5044814;28;20427;-74
2023/05/04 05:53:49;;;;;;;76.78;11.25;;;;;;;;;;5046604;28;20056;-74
2023/05/04 05:56:19;;;;;;;110.55;12.82;;;;;;;;;;5045747;28;20052;-73
2023/05/04 05:58:52;;;;;;;136.52;12.27;;;;;;;;;;5046157;28;20037;-74
2023/05/04 06:01:23;;;;;;;90.63;11.85;;;;;;;;;;5046939;28;20052;-73
2023/05/04 06:03:53;;;;;;;115.75;12.23;;;;;;;;;;5046186;28;20415;-74
2023/05/04 06:06:24;;;;;;;134.50;13.57;;;;;;;;;;5045839;28;20049;-74
2023/05/04 06:08:55;;;;;;;90.65;11.45;;;;;;;;;;5046410;28;20500;-73
2023/05/04 06:11:26;;;;;;;120.55;13.60;;;;;;;;;;5045418;28;20052;-74
2023/05/04 06:13:56;;;;;;;120.43;13.52;;;;;;;;;;5044815;28;20064;-74
2023/05/04 06:16:26;;;;;;;103.72;12.73;;;;;;;;;;5045200;28;20063;-73
2023/05/04 06:18:57;;;;;;;89.63;11.77;;;;;;;;;;5045875;28;20115;-74
2023/05/04 06:21:27;;;;;;;102.57;11.48;;;;;;;;;;5045625;28;20099;-74
2023/05/04 06:23:57;;;;;;;120.60;12.05;;;;;;;;;;5045744;28;20049;-73
2023/05/04 06:26:28;;;;;;;91.78;10.55;;;;;;;;;;5044839;28;20441;-73
2023/05/04 06:28:58;;;;;;;96.53;11.40;;;;;;;;;;5045429;28;20500;-74
2023/05/04 06:31:30;;;;;;;49.53;8.90;;;;;;;;;;5046203;28;20407;-74
2023/05/04 06:34:00;;;;;;;66.03;12.02;;;;;;;;;;5045832;28;20045;-73
2023/05/04 06:36:30;;;;;;;69.30;10.60;;;;;;;;;;5044974;28;20415;-73
2023/05/04 06:39:00;;;;;;;37.35;7.90;;;;;;;;;;5045710;28;20045;-73
2023/05/04 06:41:31;;;;;;;38.00;7.72;;;;;;;;;;5045546;28;20045;-74
2023/05/04 06:44:01;;;;;;;42.40;8.68;;;;;;;;;;5043924;28;20496;-74
2023/05/04 06:46:35;;;;;;;49.58;8.25;;;;;;;;;;5044718;28;20056;-74
2023/05/04 06:49:07;;;;;;;31.35;7.90;;;;;;;;;;5044869;28;20068;-74
2023/05/04 06:51:38;;;;;;;41.60;8.27;;;;;;;;;;5045148;28;20044;-74
2023/05/04 06:54:10;;;;;;;77.30;8.82;;;;;;;;;;5045368;28;20432;-73
2023/05/04 06:56:41;;;;;;;75.93;10.25;;;;;;;;;;5044838;28;20049;-75
2023/05/04 06:59:11;;;;;;;84.68;10.43;;;;;;;;;;5045301;28;20044;-74
2023/05/04 07:01:44;;;;;;;65.13;9.77;;;;;;;;;;5044899;28;20052;-73
2023/05/04 07:04:22;;;;;;;66.72;9.63;;;;;;;;;;5045273;28;20057;-73
2023/05/04 07:06:52;;;;;;;87.85;10.20;;;;;;;;;;5042984;28;20049;-73
2023/05/04 07:09:23;;;;;;;116.97;11.32;;;;;;;;;;5045330;28;20053;-73
2023/05/04 07:11:53;;;;;;;91.43;10.90;;;;;;;;;;5045373;28;20049;-73
2023/05/04 07:14:24;;;;;;;117.65;11.27;;;;;;;;;;5044894;28;20060;-74
2023/05/04 07:16:54;;;;;;;134.35;11.15;;;;;;;;;;5044740;28;20427;-74
2023/05/04 07:19:25;;;;;;;138.75;11.77;;;;;;;;;;5044551;28;20056;-74
2023/05/04 07:21:56;;;;;;;135.43;11.55;;;;;;;;;;5044795;28;20052;-74
2023/05/04 07:24:31;;;;;;;151.30;13.15;;;;;;;;;;5044411;28;20056;-74
2023/05/04 07:27:02;;;;;;;159.40;12.32;;;;;;;;;;5034895;28;20060;-73
2023/05/04 07:29:32;;;;;;;183.00;13.68;;;;;;;;;;5044353;28;20049;-74
2023/05/04 07:32:03;;;;;;;168.43;13.43;;;;;;;;;;5044755;28;20389;-74
2023/05/04 07:34:34;;;;;;;113.25;12.80;;;;;;;;;;5045196;28;20064;-74
2023/05/04 07:37:14;;;;;;;195.95;14.13;;;;;;;;;;5044900;28;20049;-73
2023/05/04 07:39:45;;;;;;;223.18;14.77;;;;;;;;;;5044479;28;20056;-73
2023/05/04 07:42:16;;;;;;;159.23;12.73;;;;;;;;;;5048572;28;20048;-73
2023/05/04 07:44:46;;;;;;;162.23;11.55;;;;;;;;;;5048753;28;20044;-72
2023/05/04 07:47:16;;;;;;;143.45;10.60;;;;;;;;;;5048382;28;20045;-73
2023/05/04 07:49:46;;;;;;;161.88;12.07;;;;;;;;;;5048870;28;20053;-73
2023/05/04 07:52:16;;;;;;;108.90;10.18;;;;;;;;;;5047221;28;20060;-72
2023/05/04 07:54:47;;;;;;;146.77;9.80;;;;;;;;;;5047908;28;21197;-74
2023/05/04 07:57:17;;;;;;;132.40;10.20;;;;;;;;;;5048157;28;20432;-74
2023/05/04 07:59:47;;;;;;;114.40;11.00;;;;;;;;;;5047475;28;20068;-73
2023/05/04 08:02:17;;;;;;;54.90;9.10;;;;;;;;;;5033667;28;20064;-74
2023/05/04 08:04:48;;;;;;;52.70;7.40;;;;;;;;;;5028592;28;20038;-74
2023/05/04 08:07:21;;;;;;;69.05;8.65;;;;;;;;;;5028418;28;20057;-74
2023/05/04 08:09:54;;;;;;;85.93;9.65;;;;;;;;;;5027859;28;20041;-73
2023/05/04 08:12:25;;;;;;;86.38;8.85;;;;;;;;;;5027807;28;20511;-74
2023/05/04 08:14:56;;;;;;;61.10;9.95;;;;;;;;;;5027865;28;20519;-73
2023/05/04 08:17:25;;;;;;;28.92;7.78;;;;;;;;;;5028237;28;20049;-75
2023/05/04 08:19:56;;;;;;;44.95;8.50;;;;;;;;;;5028422;28;20496;-74
2023/05/04 08:22:27;;;;;;;53.45;8.32;;;;;;;;;;5028150;28;20049;-73
2023/05/04 08:24:57;;;;;;;99.85;11.15;;;;;;;;;;5042393;28;20068;-73
2023/05/04 08:27:26;;;;;;;78.88;8.60;;;;;;;;;;5027952;28;20076;-73
2023/05/04 08:29:58;;;;;;;79.35;8.88;;;;;;;;;;5028228;28;20056;-73
2023/05/04 08:32:28;;;;;;;91.15;9.23;;;;;;;;;;5028056;28;20053;-73
2023/05/04 08:35:02;;;;;;;101.93;8.88;;;;;;;;;;5028063;28;20412;-72
2023/05/04 08:37:33;;;;;;;79.15;8.90;;;;;;;;;;5028172;28;20385;-72
2023/05/04 08:40:04;;;;;;;77.55;11.70;;;;;;;;;;5027462;28;20045;-73
2023/05/04 08:42:36;;;;;;;27.88;8.73;;;;;;;;;;5027528;28;20068;-73
2023/05/04 08:45:09;;;;;;;34.47;9.13;;;;;;;;;;5027783;28;20512;-73
2023/05/04 08:47:42;;;;;;;42.00;8.90;;;;;;;;;;5025292;28;20060;-72
2023/05/04 08:50:15;;;;;;;35.22;9.00;;;;;;;;;;5027698;28;20400;-73
2023/05/04 08:52:46;;;;;;;34.60;9.57;;;;;;;;;;5025778;28;20125;-73
2023/05/04 08:55:17;;;;;;;35.78;9.40;;;;;;;;;;5027957;28;20510;-73
2023/05/04 08:57:47;;;;;;;24.90;8.45;;;;;;;;;;5027375;28;20056;-72
2023/05/04 09:00:21;;;;;;;33.65;9.43;;;;;;;;;;5025120;28;20068;-73
2023/05/04 09:02:53;;;;;;;39.50;9.30;;;;;;;;;;5027112;28;20041;-73
2023/05/04 09:05:25;;;;;;;35.17;11.77;;;;;;;;;;5026980;28;20512;-76
2023/05/04 09:07:55;;;;;;;36.55;10.25;;;;;;;;;;5027032;28;20048;-73
2023/05/04 09:10:27;;;;;;;30.80;9.25;;;;;;;;;;5027301;28;20527;-73
2023/05/04 09:12:58;;;;;;;27.25;8.15;;;;;;;;;;5041785;28;20041;-72
2023/05/04 09:15:28;;;;;;;32.50;9.10;;;;;;;;;;5041822;28;20061;-75
2023/05/04 09:18:01;;;;;;;48.03;9.68;;;;;;;;;;5026784;28;20053;-74
2023/05/04 09:20:45;;;;;;;25.50;8.52;;;;;;;;;;5041857;28;20056;-73
2023/05/04 09:23:17;;;;;;;25.50;9.30;;;;;;;;;;5026530;28;20049;-74
2023/05/04 09:25:52;;;;;;;26.35;7.53;;;;;;;;;;5025243;28;20416;-74
2023/05/04 09:28:49;;;;;;;37.20;8.30;;;;;;;;;;5026930;28;20049;-75
2023/05/04 09:31:20;;;;;;;26.27;7.63;;;;;;;;;;5025395;28;20539;-74
2023/05/04 09:33:51;;;;;;;22.20;7.25;;;;;;;;;;5026738;28;20052;-73
2023/05/04 09:36:23;;;;;;;26.05;7.20;;;;;;;;;;5026548;28;20045;-74
2023/05/04 09:38:54;;;;;;;27.17;6.45;;;;;;;;;;5026432;28;20045;-74
2023/05/04 09:41:33;;;;;;;21.60;7.03;;;;;;;;;;5026396;28;20790;-75
2023/05/04 09:44:03;;;;;;;20.98;7.60;;;;;;;;;;5026378;28;20501;-75
2023/05/04 09:46:34;;;;;;;18.27;7.47;;;;;;;;;;5026707;28;20041;-75
2023/05/04 09:49:04;;;;;;;15.73;6.72;;;;;;;;;;5026714;28;20497;-74
2023/05/04 09:51:34;;;;;;;23.73;6.82;;;;;;;;;;5024936;28;20060;-74
2023/05/04 09:54:05;;;;;;;19.33;7.13;;;;;;;;;;5024275;28;20539;-74
2023/05/04 09:56:49;;;;;;;19.13;7.03;;;;;;;;;;5025588;28;20049;-76
2023/05/04 09:59:19;;;;;;;16.48;6.63;;;;;;;;;;5026066;28;20520;-75
2023/05/04 10:01:51;;;;;;;17.73;7.20;;;;;;;;;;5026576;28;20045;-75
2023/05/04 10:04:21;;;;;;;17.08;7.70;;;;;;;;;;5025384;28;20060;-75
2023/05/04 10:06:54;;;;;;;14.30;6.40;;;;;;;;;;5024857;28;20053;-75
2023/05/04 10:09:28;;;;;;;13.70;6.18;;;;;;;;;;5026130;28;20048;-75
2023/05/04 10:12:00;;;;;;;10.73;5.80;;;;;;;;;;5026226;28;20053;-74
2023/05/04 10:14:35;;;;;;;10.10;5.00;;;;;;;;;;5023916;28;20447;-74
2023/05/04 10:17:18;;;;;;;8.98;4.95;;;;;;;;;;5023741;28;20060;-74
2023/05/04 10:19:58;;;;;;;9.60;5.10;;;;;;;;;;5026451;28;20049;-73
2023/05/04 10:23:06;;;;;;;10.75;5.07;;;;;;;;;;5045869;28;20048;-74
2023/05/04 10:25:52;;;;;;;10.75;4.97;;;;;;;;;;5045222;28;20052;-76
2023/05/04 10:28:37;;;;;;;11.38;4.65;;;;;;;;;;5045567;28;20049;-73
2023/05/04 10:31:07;;;;;;;7.70;4.18;;;;;;;;;;5043678;28;20418;-74
2023/05/04 10:33:43;;;;;;;6.30;3.90;;;;;;;;;;5044544;28;20055;-74
2023/05/04 10:36:14;;;;;;;10.27;4.53;;;;;;;;;;5045264;28;20052;-73
2023/05/04 10:38:45;;;;;;;5.70;3.78;;;;;;;;;;5045732;28;20057;-74
2023/05/04 10:41:20;;;;;;;6.97;4.40;;;;;;;;;;5045528;28;20072;-73
2023/05/04 10:44:02;;;;;;;5.90;4.22;;;;;;;;;;5045669;28;20415;-74
2023/05/04 10:46:34;;;;;;;7.95;5.03;;;;;;;;;;5044720;28;20446;-74
2023/05/04 10:49:17;;;;;;;9.23;5.07;;;;;;;;;;5045390;28;20049;-75
2023/05/04 10:52:17;;;;;;;7.38;4.70;;;;;;;;;;5055376;28;20041;-72
2023/05/04 10:54:59;;;;;;;9.77;5.13;;;;;;;;;;5052991;28;20132;-72
2023/05/04 10:57:30;;;;;;;8.80;4.63;;;;;;;;;;5061668;28;20045;-72
2023/05/04 11:00:03;;;;;;;8.23;4.20;;;;;;;;;;5065103;28;20055;-72
2023/05/04 11:02:33;;;;;;;6.93;4.38;;;;;;;;;;5064932;28;20079;-72
2023/05/04 11:05:08;;;;;;;9.10;4.25;;;;;;;;;;5064778;28;20059;-72
2023/05/04 11:07:41;;;;;;;9.73;4.90;;;;;;;;;;5064822;28;20036;-72
2023/05/04 11:10:25;;;;;;;7.30;5.03;;;;;;;;;;5065259;28;20052;-74
2023/05/04 11:13:01;;;;;;;8.40;4.85;;;;;;;;;;5065315;28;20055;-74
2023/05/04 11:15:46;;;;;;;11.40;6.07;;;;;;;;;;5063805;28;20052;-73
2023/05/04 11:18:36;;;;;;;8.95;5.20;;;;;;;;;;5064732;28;20052;-73
2023/05/04 11:21:08;;;;;;;13.93;5.90;;;;;;;;;;5064539;28;20044;-72
2023/05/04 11:23:38;;;;;;;11.88;6.00;;;;;;;;;;5064634;28;20060;-73
2023/05/04 11:26:11;;;;;;;9.73;5.72;;;;;;;;;;5064500;28;20044;-72
2023/05/04 11:28:43;;;;;;;11.95;5.85;;;;;;;;;;5064649;28;20499;-72
2023/05/04 11:31:15;;;;;;;10.70;5.80;;;;;;;;;;5065088;28;20048;-73
2023/05/04 11:33:48;;;;;;;14.55;7.03;;;;;;;;;;5064542;28;20529;-72
2023/05/04 11:36:20;;;;;;;13.95;8.65;;;;;;;;;;5063833;28;20522;-72
2023/05/04 11:38:59;;;;;;;12.88;7.15;;;;;;;;;;5064345;28;20052;-72
2023/05/04 11:41:30;;;;;;;10.45;6.50;;;;;;;;;;5065071;28;20480;-73
2023/05/04 11:44:09;;;;;;;14.32;6.40;;;;;;;;;;5065061;28;20380;-72
2023/05/04 11:46:39;;;;;;;9.70;5.68;;;;;;;;;;5063403;28;20060;-73
2023/05/04 11:49:11;;;;;;;10.52;5.68;;;;;;;;;;5063055;28;20063;-72
2023/05/04 11:51:41;;;;;;;8.68;5.32;;;;;;;;;;5064586;28;20048;-72
2023/05/04 11:54:22;;;;;;;10.05;4.80;;;;;;;;;;5064670;28;20045;-72
2023/05/04 11:56:52;;;;;;;7.63;5.30;;;;;;;;;;5064406;28;20411;-73
2023/05/04 11:59:23;;;;;;;11.10;5.70;;;;;;;;;;5064605;28;20056;-73
2023/05/04 12:01:58;;;;;;;9.57;6.40;;;;;;;;;;5063870;28;20053;-74
2023/05/04 12:04:31;;;;;;;10.40;6.30;;;;;;;;;;5064157;28;20056;-72
2023/05/04 12:07:09;;;;;;;9.55;6.32;;;;;;;;;;5064396;28;20071;-73
2023/05/04 12:09:46;;;;;;;10.77;6.32;;;;;;;;;;5064170;28;20060;-73
2023/05/04 12:12:20;;;;;;;10.10;6.07;;;;;;;;;;5064440;28;20044;-73
2023/05/04 12:14:52;;;;;;;8.80;6.22;;;;;;;;;;5064315;28;20049;-73
2023/05/04 12:17:24;;;;;;;7.63;4.60;;;;;;;;;;5064583;28;20041;-73
2023/05/04 12:19:56;;;;;;;6.75;4.43;;;;;;;;;;5063659;28;20049;-73
2023/05/04 12:22:34;;;;;;;5.78;3.70;;;;;;;;;;5063862;28;20040;-74
2023/05/04 12:25:05;;;;;;;8.70;4.15;;;;;;;;;;5064048;28;20052;-73
2023/05/04 12:27:40;;;;;;;5.35;3.88;;;;;;;;;;5066858;28;20052;-74
2023/05/04 12:30:11;;;;;;;5.70;3.83;;;;;;;;;;5067648;28;20048;-74
2023/05/04 12:32:43;;;;;;;3.95;2.92;;;;;;;;;;5067727;28;20055;-73
2023/05/04 12:35:14;;;;;;;5.00;3.13;;;;;;;;;;5067673;28;20050;-75
2023/05/04 12:37:44;;;;;;;6.50;4.15;;;;;;;;;;5066968;28;20063;-73
2023/05/04 12:40:14;;;;;;;4.15;3.00;;;;;;;;;;5066184;28;20502;-74
2023/05/04 12:42:57;;;;;;;4.13;3.10;;;;;;;;;;5067538;28;20515;-75
2023/05/04 12:45:27;;;;;;;4.75;3.95;;;;;;;;;;5067201;28;20048;-74
2023/05/04 12:47:58;;;;;;;10.52;6.65;;;;;;;;;;5067328;28;20416;-74
2023/05/04 12:50:28;;;;;;;6.30;5.03;;;;;;;;;;5067518;28;20060;-75
2023/05/04 12:53:02;;;;;;;6.53;4.78;;;;;;;;;;5067516;28;20507;-74
2023/05/04 12:55:32;;;;;;;9.05;4.85;;;;;;;;;;5067101;28;20052;-74
2023/05/04 12:58:03;;;;;;;5.05;4.47;;;;;;;;;;5066667;28;20047;-75
2023/05/04 13:00:36;;;;;;;3.40;3.10;;;;;;;;;;5066744;28;20060;-74
2023/05/04 13:03:11;;;;;;;5.20;3.67;;;;;;;;;;5067392;28;20055;-74
2023/05/04 13:05:42;;;;;;;6.13;3.95;;;;;;;;;;5067273;28;20041;-75
2023/05/04 13:08:12;;;;;;;3.70;3.10;;;;;;;;;;5066647;28;20059;-76
2023/05/04 13:10:45;;;;;;;5.30;3.15;;;;;;;;;;5066621;28;20057;-76
2023/05/04 13:13:16;;;;;;;3.78;2.67;;;;;;;;;;5067056;28;20526;-75
2023/05/04 13:15:49;;;;;;;5.43;2.90;;;;;;;;;;5066888;28;20530;-74
2023/05/04 13:18:25;;;;;;;3.03;2.47;;;;;;;;;;5067511;28;20049;-76
2023/05/04 13:20:56;;;;;;;3.72;2.50;;;;;;;;;;5066896;28;20044;-77
2023/05/04 13:23:27;;;;;;;5.88;2.83;;;;;;;;;;5066861;28;20048;-80
2023/05/04 13:25:58;;;;;;;6.82;4.50;;;;;;;;;;5066874;28;20053;-74
2023/05/04 13:28:28;;;;;;;3.03;2.50;;;;;;;;;;5065542;28;20063;-76
2023/05/04 13:30:58;;;;;;;2.70;2.50;;;;;;;;;;5066381;28;20064;-75
2023/05/04 13:33:29;;;;;;;4.43;3.33;;;;;;;;;;5066471;28;20504;-79
2023/05/04 13:36:01;;;;;;;7.28;3.90;;;;;;;;;;5066655;28;20067;-75
2023/05/04 13:38:32;;;;;;;8.43;3.95;;;;;;;;;;5065579;28;20777;-75
2023/05/04 13:41:02;;;;;;;5.53;3.28;;;;;;;;;;5066549;28;20040;-76
2023/05/04 13:43:32;;;;;;;3.92;3.50;;;;;;;;;;5066313;28;20059;-74
2023/05/04 13:46:03;;;;;;;8.13;4.32;;;;;;;;;;5065802;28;20044;-76
2023/05/04 13:48:34;;;;;;;8.48;5.10;;;;;;;;;;5064476;28;20063;-75
2023/05/04 13:51:04;;;;;;;6.63;4.45;;;;;;;;;;5066606;28;20052;-75
2023/05/04 13:53:34;;;;;;;15.07;5.10;;;;;;;;;;5066612;28;20048;-76
2023/05/04 13:56:04;;;;;;;20.23;4.75;;;;;;;;;;5064946;28;20056;-75
2023/05/04 13:58:34;;;;;;;4.50;3.83;;;;;;;;;;5065820;28;20048;-75
2023/05/04 14:01:05;;;;;;;6.53;4.47;;;;;;;;;;5065501;28;20048;-76
2023/05/04 14:03:36;;;;;;;3.90;3.25;;;;;;;;;;5064731;28;20779;-78
2023/05/04 14:06:06;;;;;;;4.80;3.00;;;;;;;;;;5065683;28;20418;-75
2023/05/04 14:08:36;;;;;;;9.27;3.40;;;;;;;;;;5065979;28;20041;-74
2023/05/04 14:11:07;;;;;;;10.40;3.17;;;;;;;;;;5065884;28;20041;-75
2023/05/04 14:13:37;;;;;;;3.25;2.78;;;;;;;;;;5065858;28;20048;-75
2023/05/04 14:16:07;;;;;;;9.20;3.65;;;;;;;;;;5065338;28;20075;-74
2023/05/04 14:18:38;;;;;;;10.18;3.53;;;;;;;;;;5065938;28;20048;-74
2023/05/04 14:21:09;;;;;;;3.55;3.25;;;;;;;;;;5065272;28;20040;-75
2023/05/04 14:23:39;;;;;;;3.78;2.88;;;;;;;;;;5065298;28;20487;-75
2023/05/04 14:26:10;;;;;;;5.75;3.00;;;;;;;;;;5065697;28;20053;-76
2023/05/04 14:28:40;;;;;;;3.22;2.85;;;;;;;;;;5065655;28;20052;-76
2023/05/04 14:31:11;;;;;;;3.63;3.00;;;;;;;;;;5065317;28;20049;-74
2023/05/04 14:33:42;;;;;;;5.72;3.38;;;;;;;;;;5064563;28;20060;-74
2023/05/04 14:36:13;;;;;;;6.45;3.35;;;;;;;;;;5063646;28;20052;-75
2023/05/04 14:38:42;;;;;;;4.65;3.40;;;;;;;;;;5065008;28;20491;-73
2023/05/04 14:41:14;;;;;;;4.97;3.15;;;;;;;;;;5065059;28;20044;-74
2023/05/04 14:43:45;;;;;;;4.07;2.88;;;;;;;;;;5065820;28;20052;-75
2023/05/04 14:46:16;;;;;;;6.32;3.00;;;;;;;;;;5065942;28;20067;-74
2023/05/04 14:48:46;;;;;;;10.57;3.22;;;;;;;;;;5064849;28;20051;-74
2023/05/04 14:51:23;;;;;;;2.95;2.63;;;;;;;;;;5065101;28;20044;-74
2023/05/04 14:53:54;;;;;;;8.00;3.20;;;;;;;;;;5065157;28;20040;-74
2023/05/04 14:56:26;;;;;;;3.75;3.22;;;;;;;;;;5064691;28;20521;-73
2023/05/04 14:58:56;;;;;;;6.47;3.55;;;;;;;;;;5065321;28;20044;-75
2023/05/04 15:01:26;;;;;;;4.00;2.92;;;;;;;;;;5065148;28;20543;-79
2023/05/04 15:03:56;;;;;;;5.60;3.15;;;;;;;;;;5065436;28;20052;-74